Aviation Digital Data Service (ADDS)

Output produced by METARs form (0649 UTC 22 July 2017)
found at http://aviationweather.gov/adds/metars/
 
KMHT 220522Z 2206/2306 VRB03KT P6SM BKN250 
     FM221400 27007KT P6SM BKN250 
     FM230100 VRB03KT P6SM BKN250